Island Lookout — WDF6311 — position and weather

sailwx.info

Track history (hours):
 
Tides and Currents Weather Stations Pressure Air Temp Water Temp Dewpoint Dewpoint Depression Visibility Wind Speed Wind Dir Waves Ship Positions

Island Lookout

Owner: Stevens Towing Company Inc., Yonges Island, SC. More information available from US FCC via Universal Licensing System and Coast Guard Vessel Documentation Center.

Last reported at 2016-Feb-13 04:33 UTC. Time now 2016-Feb-13 04:40 UTC.
Position N 36°43' W 076°15'.

Length 22 m; draft 2.9 m.

Type: Towing. MMSI: 367472930.

Date/timePositionNaut miles runAvg speedWind from/ knotsBaromVisibWave heightAir tempDewpointWater temp
2016-Feb-13 04:33N 36°43' W 076°15'0 0.0
2016-Feb-13 03:33N 36°43' W 076°15'0 0.0
2016-Feb-13 02:33N 36°43' W 076°15'0 0.0
2016-Feb-13 01:33N 36°43' W 076°15'0 0.0
2016-Feb-13 00:33N 36°43' W 076°15'0 0.0
2016-Feb-12 23:33N 36°43' W 076°15'0 0.0
2016-Feb-12 22:33N 36°43' W 076°15'0 0.0
2016-Feb-12 21:33N 36°43' W 076°15'0 0.0
2016-Feb-12 20:33N 36°43' W 076°15'0 0.0
2016-Feb-12 19:33N 36°43' W 076°15'0 0.0
2016-Feb-12 18:33N 36°43' W 076°15'0 0.0
2016-Feb-12 17:33N 36°43' W 076°15'  
2016-Feb-09 18:13N 36°43' W 076°14'1 1.5
2016-Feb-09 17:31N 36°43' W 076°15'0 0.1
2016-Feb-09 16:33N 36°44' W 076°15'0 0.0
2016-Feb-09 15:33N 36°44' W 076°15'0 0.1
2016-Feb-09 14:32N 36°44' W 076°15'3 3.5
2016-Feb-09 13:33N 36°46' W 076°18'5 5.1
2016-Feb-09 12:33N 36°51' W 076°18'131 5.9
2016-Feb-08 14:31N 39°02' W 076°23'7 6.6
2016-Feb-08 13:27N 39°09' W 076°25'5 6.1
2016-Feb-08 12:33N 39°12' W 076°30'4 3.5
2016-Feb-08 11:33N 39°12' W 076°35'0 0.1
2016-Feb-08 10:33N 39°12' W 076°35'0 0.0
2016-Feb-08 09:33N 39°12' W 076°35'0 0.0
2016-Feb-08 08:33N 39°12' W 076°35'0 0.0
2016-Feb-08 07:33N 39°12' W 076°35'0 0.0
2016-Feb-08 06:33N 39°12' W 076°35'0 0.0
2016-Feb-08 05:33N 39°12' W 076°35'0 0.0
2016-Feb-08 04:33N 39°12' W 076°35'0 0.0
2016-Feb-08 03:33N 39°12' W 076°35'0 0.0
2016-Feb-08 02:33N 39°12' W 076°35'0 0.0
2016-Feb-08 01:33N 39°12' W 076°35'0 0.0
2016-Feb-08 00:33N 39°12' W 076°35'0 0.0
2016-Feb-07 23:33N 39°12' W 076°35'0 0.0
2016-Feb-07 22:33N 39°12' W 076°35'0 0.0
2016-Feb-07 21:33N 39°12' W 076°35'0 0.0
2016-Feb-07 20:33N 39°12' W 076°35'0 0.0
2016-Feb-07 19:33N 39°12' W 076°35'0 0.0
2016-Feb-07 18:33N 39°12' W 076°35'0 0.0
2016-Feb-07 17:33N 39°12' W 076°35'0 0.0
2016-Feb-07 16:33N 39°12' W 076°35'0 0.0
2016-Feb-07 15:33N 39°12' W 076°35'0 0.0
2016-Feb-07 14:33N 39°12' W 076°35'0 0.0
2016-Feb-07 13:33N 39°12' W 076°35'0 0.0
2016-Feb-07 12:33N 39°12' W 076°35'0 0.0
2016-Feb-07 11:33N 39°12' W 076°35'0 0.0
2016-Feb-07 10:33N 39°12' W 076°35'0 0.0
2016-Feb-07 09:33N 39°12' W 076°35'0 0.0
2016-Feb-07 08:33N 39°12' W 076°35'0 0.0
2016-Feb-07 07:33N 39°12' W 076°35'0 0.0
2016-Feb-07 06:33N 39°12' W 076°35'0 0.0
2016-Feb-07 05:33N 39°12' W 076°35'0 0.0
2016-Feb-07 04:33N 39°12' W 076°35'4 3.7
2016-Feb-07 03:33N 39°12' W 076°30'6 6.4
2016-Feb-07 02:33N 39°08' W 076°24'7 6.5
2016-Feb-07 01:32N 39°01' W 076°23'52 7.1
2016-Feb-06 18:12N 38°09' W 076°17'72 7.2
2016-Feb-06 08:13N 36°57' W 076°20'4 6.1
2016-Feb-06 07:33N 36°53' W 076°20'6 5.9
2016-Feb-06 06:33N 36°47' W 076°18'4 3.7
2016-Feb-06 05:33N 36°44' W 076°17'2 1.8
2016-Feb-06 04:33N 36°43' W 076°15'0 0.0
2016-Feb-06 03:33N 36°43' W 076°15'0 0.0
2016-Feb-06 02:33N 36°43' W 076°15'0 0.0
2016-Feb-06 01:33N 36°43' W 076°15'0 0.0
2016-Feb-06 00:33N 36°43' W 076°15'0 0.0
2016-Feb-05 23:33N 36°43' W 076°15'0 0.0
2016-Feb-05 22:33N 36°43' W 076°15'0 0.0
2016-Feb-05 21:33N 36°43' W 076°15'0 0.0
2016-Feb-05 20:33N 36°43' W 076°15'0 0.0
2016-Feb-05 19:33N 36°43' W 076°15'0 0.0
2016-Feb-05 18:33N 36°43' W 076°15'0 0.0
2016-Feb-05 17:33N 36°43' W 076°15'0 0.0
2016-Feb-05 16:33N 36°43' W 076°15'0 0.0
2016-Feb-05 15:33N 36°43' W 076°15'0 0.0
2016-Feb-05 14:33N 36°43' W 076°15'0 0.0
2016-Feb-05 13:33N 36°43' W 076°15'0 0.0
2016-Feb-05 12:33N 36°43' W 076°15'0 0.0
2016-Feb-05 11:33N 36°43' W 076°15'0 0.0
2016-Feb-05 10:33N 36°43' W 076°15'0 0.0
2016-Feb-05 09:33N 36°43' W 076°15'0 0.0
2016-Feb-05 08:33N 36°43' W 076°15'0 0.0
2016-Feb-05 07:33N 36°43' W 076°15'0 0.0
2016-Feb-05 06:33N 36°43' W 076°15'0 0.0
2016-Feb-05 05:33N 36°43' W 076°15'0 0.0
2016-Feb-05 04:33N 36°43' W 076°15'0 0.0
2016-Feb-05 03:33N 36°43' W 076°15'0 0.0
2016-Feb-05 02:33N 36°43' W 076°15'0 0.0
2016-Feb-05 01:33N 36°43' W 076°15'0 0.0
2016-Feb-05 00:33N 36°43' W 076°15'0 0.0
2016-Feb-04 23:33N 36°43' W 076°15'0 0.0
2016-Feb-04 22:33N 36°43' W 076°15'0 0.0
2016-Feb-04 21:33N 36°43' W 076°15'0 0.0
2016-Feb-04 20:33N 36°43' W 076°15'0 0.0
2016-Feb-04 19:33N 36°43' W 076°15'0 0.0
2016-Feb-04 18:33N 36°43' W 076°15'1 0.5
2016-Feb-04 17:32N 36°43' W 076°14'  
Track history (hours):
 
Tides and Currents Weather Stations Pressure Air Temp Water Temp Dewpoint Dewpoint Depression Visibility Wind Speed Wind Dir Waves Ship Positions

Island Lookout

Owner: Stevens Towing Company Inc., Yonges Island, SC. More information available from US FCC via Universal Licensing System and Coast Guard Vessel Documentation Center.

Last reported at 2016-Feb-13 04:33 UTC. Time now 2016-Feb-13 04:40 UTC.
Position N 36°43' W 076°15'.

Length 22 m; draft 2.9 m.

Type: Towing. MMSI: 367472930.

Date/timePositionNaut miles runAvg speedWind from/ knotsBaromVisibWave heightAir tempDewpointWater temp
2016-Feb-13 04:33N 36°43' W 076°15'0 0.0
2016-Feb-13 03:33N 36°43' W 076°15'0 0.0
2016-Feb-13 02:33N 36°43' W 076°15'0 0.0
2016-Feb-13 01:33N 36°43' W 076°15'0 0.0
2016-Feb-13 00:33N 36°43' W 076°15'0 0.0
2016-Feb-12 23:33N 36°43' W 076°15'0 0.0
2016-Feb-12 22:33N 36°43' W 076°15'0 0.0
2016-Feb-12 21:33N 36°43' W 076°15'0 0.0
2016-Feb-12 20:33N 36°43' W 076°15'0 0.0
2016-Feb-12 19:33N 36°43' W 076°15'0 0.0
2016-Feb-12 18:33N 36°43' W 076°15'0 0.0
2016-Feb-12 17:33N 36°43' W 076°15'  
2016-Feb-09 18:13N 36°43' W 076°14'1 1.5
2016-Feb-09 17:31N 36°43' W 076°15'0 0.1
2016-Feb-09 16:33N 36°44' W 076°15'0 0.0
2016-Feb-09 15:33N 36°44' W 076°15'0 0.1
2016-Feb-09 14:32N 36°44' W 076°15'3 3.5
2016-Feb-09 13:33N 36°46' W 076°18'5 5.1
2016-Feb-09 12:33N 36°51' W 076°18'131 5.9
2016-Feb-08 14:31N 39°02' W 076°23'7 6.6
2016-Feb-08 13:27N 39°09' W 076°25'5 6.1
2016-Feb-08 12:33N 39°12' W 076°30'4 3.5
2016-Feb-08 11:33N 39°12' W 076°35'0 0.1
2016-Feb-08 10:33N 39°12' W 076°35'0 0.0
2016-Feb-08 09:33N 39°12' W 076°35'0 0.0
2016-Feb-08 08:33N 39°12' W 076°35'0 0.0
2016-Feb-08 07:33N 39°12' W 076°35'0 0.0
2016-Feb-08 06:33N 39°12' W 076°35'0 0.0
2016-Feb-08 05:33N 39°12' W 076°35'0 0.0
2016-Feb-08 04:33N 39°12' W 076°35'0 0.0
2016-Feb-08 03:33N 39°12' W 076°35'0 0.0
2016-Feb-08 02:33N 39°12' W 076°35'0 0.0
2016-Feb-08 01:33N 39°12' W 076°35'0 0.0
2016-Feb-08 00:33N 39°12' W 076°35'0 0.0
2016-Feb-07 23:33N 39°12' W 076°35'0 0.0
2016-Feb-07 22:33N 39°12' W 076°35'0 0.0
2016-Feb-07 21:33N 39°12' W 076°35'0 0.0
2016-Feb-07 20:33N 39°12' W 076°35'0 0.0
2016-Feb-07 19:33N 39°12' W 076°35'0 0.0
2016-Feb-07 18:33N 39°12' W 076°35'0 0.0
2016-Feb-07 17:33N 39°12' W 076°35'0 0.0
2016-Feb-07 16:33N 39°12' W 076°35'0 0.0
2016-Feb-07 15:33N 39°12' W 076°35'0 0.0
2016-Feb-07 14:33N 39°12' W 076°35'0 0.0
2016-Feb-07 13:33N 39°12' W 076°35'0 0.0
2016-Feb-07 12:33N 39°12' W 076°35'0 0.0
2016-Feb-07 11:33N 39°12' W 076°35'0 0.0
2016-Feb-07 10:33N 39°12' W 076°35'0 0.0
2016-Feb-07 09:33N 39°12' W 076°35'0 0.0
2016-Feb-07 08:33N 39°12' W 076°35'0 0.0
2016-Feb-07 07:33N 39°12' W 076°35'0 0.0
2016-Feb-07 06:33N 39°12' W 076°35'0 0.0
2016-Feb-07 05:33N 39°12' W 076°35'0 0.0
2016-Feb-07 04:33N 39°12' W 076°35'4 3.7
2016-Feb-07 03:33N 39°12' W 076°30'6 6.4
2016-Feb-07 02:33N 39°08' W 076°24'7 6.5
2016-Feb-07 01:32N 39°01' W 076°23'52 7.1
2016-Feb-06 18:12N 38°09' W 076°17'72 7.2
2016-Feb-06 08:13N 36°57' W 076°20'4 6.1
2016-Feb-06 07:33N 36°53' W 076°20'6 5.9
2016-Feb-06 06:33N 36°47' W 076°18'4 3.7
2016-Feb-06 05:33N 36°44' W 076°17'2 1.8
2016-Feb-06 04:33N 36°43' W 076°15'0 0.0
2016-Feb-06 03:33N 36°43' W 076°15'0 0.0
2016-Feb-06 02:33N 36°43' W 076°15'0 0.0
2016-Feb-06 01:33N 36°43' W 076°15'0 0.0
2016-Feb-06 00:33N 36°43' W 076°15'0 0.0
2016-Feb-05 23:33N 36°43' W 076°15'0 0.0
2016-Feb-05 22:33N 36°43' W 076°15'0 0.0
2016-Feb-05 21:33N 36°43' W 076°15'0 0.0
2016-Feb-05 20:33N 36°43' W 076°15'0 0.0
2016-Feb-05 19:33N 36°43' W 076°15'0 0.0
2016-Feb-05 18:33N 36°43' W 076°15'0 0.0
2016-Feb-05 17:33N 36°43' W 076°15'0 0.0
2016-Feb-05 16:33N 36°43' W 076°15'0 0.0
2016-Feb-05 15:33N 36°43' W 076°15'0 0.0
2016-Feb-05 14:33N 36°43' W 076°15'0 0.0
2016-Feb-05 13:33N 36°43' W 076°15'0 0.0
2016-Feb-05 12:33N 36°43' W 076°15'0 0.0
2016-Feb-05 11:33N 36°43' W 076°15'0 0.0
2016-Feb-05 10:33N 36°43' W 076°15'0 0.0
2016-Feb-05 09:33N 36°43' W 076°15'0 0.0
2016-Feb-05 08:33N 36°43' W 076°15'0 0.0
2016-Feb-05 07:33N 36°43' W 076°15'0 0.0
2016-Feb-05 06:33N 36°43' W 076°15'0 0.0
2016-Feb-05 05:33N 36°43' W 076°15'0 0.0
2016-Feb-05 04:33N 36°43' W 076°15'0 0.0
2016-Feb-05 03:33N 36°43' W 076°15'0 0.0
2016-Feb-05 02:33N 36°43' W 076°15'0 0.0
2016-Feb-05 01:33N 36°43' W 076°15'0 0.0
2016-Feb-05 00:33N 36°43' W 076°15'0 0.0
2016-Feb-04 23:33N 36°43' W 076°15'0 0.0
2016-Feb-04 22:33N 36°43' W 076°15'0 0.0
2016-Feb-04 21:33N 36°43' W 076°15'0 0.0
2016-Feb-04 20:33N 36°43' W 076°15'0 0.0
2016-Feb-04 19:33N 36°43' W 076°15'0 0.0
2016-Feb-04 18:33N 36°43' W 076°15'1 0.5
2016-Feb-04 17:32N 36°43' W 076°14'  

Dump ship's entire track history